createdAt,value
2023-03-22T00:02:26.364Z,9.63
2023-03-22T00:04:53.905Z,9.53
2023-03-22T00:07:20.866Z,9.00
2023-03-22T00:09:47.604Z,8.53
2023-03-22T00:12:14.299Z,9.20
2023-03-22T00:14:41.389Z,8.47
2023-03-22T00:17:08.149Z,9.13
2023-03-22T00:19:34.888Z,9.83
2023-03-22T00:22:01.579Z,10.03
2023-03-22T00:24:28.293Z,8.97
2023-03-22T00:26:54.965Z,9.30
2023-03-22T00:29:22.813Z,9.37
2023-03-22T00:31:51.996Z,8.80
2023-03-22T00:34:18.759Z,9.50
2023-03-22T00:36:45.470Z,9.13
2023-03-22T00:39:12.691Z,9.33
2023-03-22T00:41:39.459Z,8.63
2023-03-22T00:44:06.201Z,8.73
2023-03-22T00:46:32.974Z,9.27
2023-03-22T00:48:59.711Z,9.03
2023-03-22T00:51:26.800Z,8.40
2023-03-22T00:53:54.682Z,8.63
2023-03-22T00:56:22.997Z,8.40
2023-03-22T00:58:49.745Z,9.63
2023-03-22T01:01:16.562Z,8.33
2023-03-22T01:03:44.291Z,8.70
2023-03-22T01:06:11.366Z,9.10
2023-03-22T01:08:39.166Z,8.50
2023-03-22T01:11:07.355Z,7.80
2023-03-22T01:13:37.419Z,8.13
2023-03-22T01:16:05.553Z,7.57
2023-03-22T01:18:32.261Z,8.40
2023-03-22T01:21:00.337Z,8.10
2023-03-22T01:23:27.348Z,8.50
2023-03-22T01:25:54.062Z,8.50
2023-03-22T01:28:20.786Z,7.93
2023-03-22T01:30:47.525Z,8.47
2023-03-22T01:33:14.281Z,8.00
2023-03-22T01:35:41.065Z,8.40
2023-03-22T01:38:07.858Z,8.57
2023-03-22T01:40:34.984Z,8.60
2023-03-22T01:43:01.804Z,8.47
2023-03-22T01:45:47.210Z,9.10
2023-03-22T01:48:34.735Z,8.33
2023-03-22T01:51:16.636Z,9.40
2023-03-22T01:53:48.641Z,9.30
2023-03-22T01:56:18.240Z,8.40
2023-03-22T01:58:46.442Z,8.23
2023-03-22T02:01:13.373Z,8.23
2023-03-22T02:04:04.304Z,8.93
2023-03-22T02:06:32.389Z,8.70
2023-03-22T02:08:59.219Z,8.60
2023-03-22T02:11:32.345Z,9.17
2023-03-22T02:14:27.739Z,8.87
2023-03-22T02:17:09.363Z,9.33
2023-03-22T02:20:13.131Z,9.00
2023-03-22T02:23:03.954Z,8.90
2023-03-22T02:25:42.638Z,9.40
2023-03-22T02:28:44.274Z,9.07
2023-03-22T02:31:47.452Z,9.33
2023-03-22T02:34:17.130Z,9.37
2023-03-22T02:37:04.789Z,8.90
2023-03-22T02:39:34.415Z,9.00
2023-03-22T02:42:01.492Z,8.70
2023-03-22T02:44:45.965Z,9.53
2023-03-22T02:47:21.586Z,9.00
2023-03-22T02:49:56.696Z,8.50
2023-03-22T02:52:41.012Z,8.30
2023-03-22T02:55:27.298Z,9.47
2023-03-22T02:58:16.782Z,9.17
2023-03-22T03:00:45.229Z,8.50
2023-03-22T03:03:18.297Z,8.70
2023-03-22T03:05:50.906Z,8.73
2023-03-22T03:08:19.819Z,9.37
2023-03-22T03:10:47.430Z,8.67
2023-03-22T03:13:16.297Z,8.77
2023-03-22T03:15:46.364Z,8.13
2023-03-22T03:18:45.317Z,9.10
2023-03-22T03:21:36.163Z,8.93
2023-03-22T03:24:05.928Z,8.70
2023-03-22T03:26:46.686Z,8.83
2023-03-22T03:29:30.108Z,8.50
2023-03-22T03:32:18.547Z,9.70
2023-03-22T03:34:59.320Z,9.27
2023-03-22T03:37:41.431Z,8.33
2023-03-22T03:40:15.917Z,9.60
2023-03-22T03:42:50.074Z,9.13
2023-03-22T03:45:18.691Z,9.43
2023-03-22T03:47:48.076Z,9.60
2023-03-22T03:50:16.448Z,8.60
2023-03-22T03:52:43.201Z,8.50
2023-03-22T03:55:10.334Z,9.00
2023-03-22T03:57:37.028Z,9.33
2023-03-22T04:00:05.053Z,8.73
2023-03-22T04:02:31.743Z,8.43
2023-03-22T04:04:58.598Z,9.33
2023-03-22T04:07:25.499Z,9.40
2023-03-22T04:09:52.208Z,10.00
2023-03-22T04:12:18.976Z,10.03
2023-03-22T04:14:45.790Z,9.03
2023-03-22T04:17:12.724Z,9.30
2023-03-22T04:19:39.476Z,9.07
2023-03-22T04:22:06.175Z,10.00
2023-03-22T04:24:32.907Z,9.40
2023-03-22T04:26:59.577Z,9.33
2023-03-22T04:29:26.346Z,9.57
2023-03-22T04:31:53.128Z,10.53
2023-03-22T04:34:19.915Z,9.57
2023-03-22T04:36:47.011Z,9.47
2023-03-22T04:39:13.756Z,10.40
2023-03-22T04:41:40.503Z,10.27
2023-03-22T04:44:08.135Z,9.73
2023-03-22T04:46:36.789Z,10.27
2023-03-22T04:49:05.390Z,10.30
2023-03-22T04:51:32.476Z,10.20
2023-03-22T04:54:00.110Z,10.37
2023-03-22T04:56:26.833Z,10.20
2023-03-22T04:58:53.718Z,10.37
2023-03-22T05:01:20.671Z,9.60
2023-03-22T05:03:47.730Z,10.70
2023-03-22T05:06:15.250Z,10.17
2023-03-22T05:08:42.138Z,9.87
2023-03-22T05:11:14.825Z,10.90
2023-03-22T05:13:41.649Z,10.47
2023-03-22T05:16:09.246Z,9.87
2023-03-22T05:18:37.992Z,10.50
2023-03-22T05:21:06.700Z,10.97
2023-03-22T05:23:33.415Z,11.03
2023-03-22T05:26:01.690Z,10.27
2023-03-22T05:28:28.594Z,10.70
2023-03-22T05:30:57.198Z,10.50
2023-03-22T05:33:24.213Z,11.03
2023-03-22T05:35:51.273Z,9.63
2023-03-22T05:38:18.114Z,10.30
2023-03-22T05:40:45.444Z,9.27
2023-03-22T05:43:12.396Z,11.40
2023-03-22T05:45:39.161Z,9.80
2023-03-22T05:48:06.259Z,10.50
2023-03-22T05:50:33.758Z,10.53
2023-03-22T05:53:00.553Z,10.93
2023-03-22T05:55:27.518Z,11.27
2023-03-22T05:57:54.783Z,10.30
2023-03-22T06:00:23.760Z,10.90
2023-03-22T06:02:56.290Z,11.10
2023-03-22T06:05:23.761Z,9.60
2023-03-22T06:07:50.680Z,10.37
2023-03-22T06:10:18.196Z,10.10
2023-03-22T06:12:45.452Z,11.07
2023-03-22T06:15:12.605Z,10.40
2023-03-22T06:17:39.462Z,9.60
2023-03-22T06:20:11.225Z,8.40
2023-03-22T06:22:38.609Z,10.00
2023-03-22T06:25:09.901Z,9.40
2023-03-22T06:27:36.897Z,8.50
2023-03-22T06:30:04.105Z,9.33
2023-03-22T06:32:30.774Z,9.00
2023-03-22T06:34:57.548Z,9.57
2023-03-22T06:37:24.528Z,8.73
2023-03-22T06:39:52.208Z,8.00
2023-03-22T06:42:19.055Z,8.53
2023-03-22T06:44:45.984Z,8.33
2023-03-22T06:47:12.895Z,9.30
2023-03-22T06:49:39.900Z,9.37
2023-03-22T06:52:06.686Z,8.37
2023-03-22T06:54:34.146Z,7.40
2023-03-22T06:57:00.943Z,8.20
2023-03-22T06:59:28.040Z,6.57
2023-03-22T07:01:54.915Z,8.20
2023-03-22T07:04:21.663Z,7.37
2023-03-22T07:06:48.455Z,7.53
2023-03-22T07:09:15.365Z,8.43
2023-03-22T07:11:42.273Z,7.60
2023-03-22T07:14:09.516Z,6.80
2023-03-22T07:16:36.273Z,6.60
2023-03-22T07:19:03.871Z,5.93
2023-03-22T07:21:30.849Z,7.17
2023-03-22T07:23:58.141Z,6.87
2023-03-22T07:26:26.332Z,7.20
2023-03-22T07:28:53.860Z,6.50
2023-03-22T07:31:20.741Z,6.13
2023-03-22T07:33:48.344Z,7.13
2023-03-22T07:36:15.584Z,6.10
2023-03-22T07:38:42.373Z,6.50
2023-03-22T07:41:09.091Z,6.37
2023-03-22T07:43:50.729Z,6.10
2023-03-22T07:46:17.725Z,6.33
2023-03-22T07:48:44.405Z,6.10
2023-03-22T07:51:11.217Z,6.00
2023-03-22T07:53:37.976Z,6.40
2023-03-22T07:56:05.818Z,6.13
2023-03-22T07:58:32.551Z,6.80
2023-03-22T08:01:09.035Z,6.27
2023-03-22T08:03:37.546Z,5.83
2023-03-22T08:06:07.667Z,6.57
2023-03-22T08:08:36.876Z,6.80
2023-03-22T08:11:08.059Z,6.20
2023-03-22T08:13:34.859Z,7.17
2023-03-22T08:16:01.694Z,7.20
2023-03-22T08:18:28.476Z,6.87
2023-03-22T08:20:59.944Z,6.37
2023-03-22T08:23:40.342Z,6.27
2023-03-22T08:26:07.833Z,5.63
2023-03-22T08:28:34.523Z,5.43
2023-03-22T08:31:01.279Z,6.40
2023-03-22T08:33:28.687Z,6.00
2023-03-22T08:36:06.542Z,5.63
2023-03-22T08:38:33.275Z,5.27
2023-03-22T08:41:01.453Z,5.23
2023-03-22T08:43:28.265Z,4.83
2023-03-22T08:45:55.227Z,5.73
2023-03-22T08:48:22.162Z,5.57
2023-03-22T08:50:49.429Z,5.50
2023-03-22T08:53:16.282Z,5.43
2023-03-22T08:55:44.883Z,5.60
2023-03-22T08:58:20.048Z,5.70
2023-03-22T09:00:49.334Z,5.13
2023-03-22T09:03:16.798Z,5.53
2023-03-22T09:05:43.674Z,5.50
2023-03-22T09:08:18.525Z,4.93
2023-03-22T09:10:51.694Z,5.37
2023-03-22T09:13:19.664Z,4.63
2023-03-22T09:15:47.062Z,5.00
2023-03-22T09:18:14.873Z,4.67
2023-03-22T09:20:42.085Z,5.33
2023-03-22T09:23:09.067Z,4.93
2023-03-22T09:25:35.880Z,4.87
2023-03-22T09:28:04.152Z,4.57
2023-03-22T09:30:31.326Z,4.53
2023-03-22T09:32:58.070Z,4.97
2023-03-22T09:35:24.870Z,4.80
2023-03-22T09:37:54.415Z,5.70
2023-03-22T09:40:25.161Z,4.87
2023-03-22T09:42:54.388Z,4.63
2023-03-22T09:45:29.985Z,4.40
2023-03-22T09:47:58.862Z,4.60
2023-03-22T09:50:30.854Z,4.23
2023-03-22T09:52:58.897Z,4.83
2023-03-22T09:55:37.573Z,4.70
2023-03-22T09:58:17.964Z,5.27
2023-03-22T10:01:03.084Z,4.80
2023-03-22T10:03:42.956Z,4.50
2023-03-22T10:06:18.911Z,4.40
2023-03-22T10:09:02.183Z,4.50
2023-03-22T10:11:45.776Z,4.60
2023-03-22T10:14:30.837Z,5.27
2023-03-22T10:17:00.583Z,4.60
2023-03-22T10:19:56.493Z,3.67
2023-03-22T10:22:29.776Z,3.67
2023-03-22T10:24:58.013Z,4.33
2023-03-22T10:27:28.595Z,4.10
2023-03-22T10:30:04.348Z,3.73
2023-03-22T10:32:58.114Z,3.73
2023-03-22T10:35:25.644Z,4.07
2023-03-22T10:37:54.627Z,4.50
2023-03-22T10:40:27.345Z,4.57
2023-03-22T10:43:03.594Z,3.70
2023-03-22T10:45:33.869Z,3.80
2023-03-22T10:48:02.788Z,4.60
2023-03-22T10:50:40.161Z,3.90
2023-03-22T10:53:11.801Z,3.90
2023-03-22T10:55:43.924Z,4.80
2023-03-22T10:58:16.696Z,3.40
2023-03-22T11:00:50.874Z,4.03
2023-03-22T11:03:36.341Z,4.67
2023-03-22T11:06:06.394Z,4.50
2023-03-22T11:08:50.075Z,4.67
2023-03-22T11:11:18.130Z,4.80
2023-03-22T11:13:51.749Z,5.27
2023-03-22T11:16:20.224Z,5.30
2023-03-22T11:18:47.352Z,5.57
2023-03-22T11:24:15.697Z,5.67
2023-03-22T11:26:44.912Z,5.27
2023-03-22T11:29:18.008Z,4.80
2023-03-22T11:31:57.859Z,4.70
2023-03-22T11:34:29.857Z,4.73
2023-03-22T11:37:00.345Z,4.13
2023-03-22T11:39:29.023Z,4.00
2023-03-22T11:42:06.250Z,3.70
2023-03-22T11:44:35.503Z,3.80
2023-03-22T11:47:04.171Z,4.20
2023-03-22T11:49:49.547Z,3.97
2023-03-22T11:52:19.338Z,4.57
2023-03-22T11:54:47.398Z,5.17
2023-03-22T11:57:18.517Z,5.20
2023-03-22T11:59:56.410Z,4.80
2023-03-22T12:02:28.566Z,4.83
2023-03-22T12:05:12.311Z,5.23
2023-03-22T12:07:41.649Z,4.70
2023-03-22T12:10:14.710Z,5.27
2023-03-22T12:12:49.525Z,4.67
2023-03-22T12:15:24.158Z,4.43
2023-03-22T12:18:07.946Z,4.67
2023-03-22T12:20:42.368Z,5.23
2023-03-22T12:23:25.504Z,5.00
2023-03-22T12:25:56.937Z,5.10
2023-03-22T12:28:33.774Z,5.57
2023-03-22T12:31:03.668Z,4.90
2023-03-22T12:33:32.121Z,4.87
2023-03-22T12:36:05.162Z,4.97
2023-03-22T12:38:48.299Z,5.40
2023-03-22T12:41:18.935Z,5.57
2023-03-22T12:44:01.134Z,5.83
2023-03-22T12:46:41.860Z,5.23
2023-03-22T12:49:31.216Z,5.40
2023-03-22T12:52:11.305Z,5.20
2023-03-22T12:54:38.485Z,5.10
2023-03-22T12:57:06.076Z,4.67
2023-03-22T12:59:33.184Z,4.50
2023-03-22T13:02:16.818Z,4.30
2023-03-22T13:04:43.465Z,3.63
2023-03-22T13:07:31.798Z,3.37
2023-03-22T13:09:59.701Z,3.63
2023-03-22T13:12:29.630Z,4.20
2023-03-22T13:14:59.170Z,3.87
2023-03-22T13:17:26.026Z,3.67
2023-03-22T13:19:53.802Z,3.40
2023-03-22T13:22:21.097Z,3.60
2023-03-22T13:25:10.265Z,3.50
2023-03-22T13:27:46.236Z,3.80
2023-03-22T13:30:36.131Z,3.70
2023-03-22T13:33:21.075Z,3.30
2023-03-22T13:35:56.775Z,3.57
2023-03-22T13:38:30.957Z,3.10
2023-03-22T13:41:00.728Z,3.87
2023-03-22T13:43:39.380Z,3.67
2023-03-22T13:46:27.329Z,3.40
2023-03-22T13:49:13.921Z,3.50
2023-03-22T13:51:42.115Z,3.10
2023-03-22T13:54:16.408Z,3.27
2023-03-22T13:56:52.266Z,3.10
2023-03-22T13:59:25.581Z,3.17
2023-03-22T14:02:11.006Z,3.20
2023-03-22T14:04:57.178Z,2.60
2023-03-22T14:07:33.578Z,2.87
2023-03-22T14:10:08.005Z,3.33
2023-03-22T14:12:55.911Z,2.90
2023-03-22T14:15:34.317Z,3.00
2023-03-22T14:18:08.184Z,3.40
2023-03-22T14:20:37.762Z,3.80
